sensor_id;sensor_type;location;lat;lon;timestamp;temperature;humidity
79301;SHT31;68755;51.984;5.646;2023-04-28T00:02:09;12.2;40.3
79301;SHT31;68755;51.984;5.646;2023-04-28T00:04:39;12.2;40.3
79301;SHT31;68755;51.984;5.646;2023-04-28T00:07:09;12.1;40.4
79301;SHT31;68755;51.984;5.646;2023-04-28T00:09:38;12.1;40.6
79301;SHT31;68755;51.984;5.646;2023-04-28T00:12:08;12.1;40.9
79301;SHT31;68755;51.984;5.646;2023-04-28T00:14:38;12.1;40.9
79301;SHT31;68755;51.984;5.646;2023-04-28T00:17:08;12.1;40.7
79301;SHT31;68755;51.984;5.646;2023-04-28T00:19:38;12.1;40.9
79301;SHT31;68755;51.984;5.646;2023-04-28T00:22:08;12.1;40.8
79301;SHT31;68755;51.984;5.646;2023-04-28T00:24:38;12.0;41.0
79301;SHT31;68755;51.984;5.646;2023-04-28T00:27:08;12.0;41.1
79301;SHT31;68755;51.984;5.646;2023-04-28T00:29:38;12.0;41.0
79301;SHT31;68755;51.984;5.646;2023-04-28T00:32:07;12.0;41.0
79301;SHT31;68755;51.984;5.646;2023-04-28T00:34:37;12.0;41.0
79301;SHT31;68755;51.984;5.646;2023-04-28T00:37:06;12.0;41.0
79301;SHT31;68755;51.984;5.646;2023-04-28T00:39:36;12.0;41.2
79301;SHT31;68755;51.984;5.646;2023-04-28T00:42:09;12.0;41.1
79301;SHT31;68755;51.984;5.646;2023-04-28T00:44:39;12.0;41.3
79301;SHT31;68755;51.984;5.646;2023-04-28T00:47:09;11.9;41.2
79301;SHT31;68755;51.984;5.646;2023-04-28T00:49:39;11.9;41.3
79301;SHT31;68755;51.984;5.646;2023-04-28T00:52:09;11.9;41.6
79301;SHT31;68755;51.984;5.646;2023-04-28T00:54:41;11.9;42.2
79301;SHT31;68755;51.984;5.646;2023-04-28T00:57:11;11.9;43.1
79301;SHT31;68755;51.984;5.646;2023-04-28T00:59:40;11.9;43.7
79301;SHT31;68755;51.984;5.646;2023-04-28T01:02:12;11.9;44.6
79301;SHT31;68755;51.984;5.646;2023-04-28T01:04:45;11.9;45.1
79301;SHT31;68755;51.984;5.646;2023-04-28T01:07:15;11.9;45.4
79301;SHT31;68755;51.984;5.646;2023-04-28T01:09:44;11.9;45.5
79301;SHT31;68755;51.984;5.646;2023-04-28T01:12:14;11.9;46.9
79301;SHT31;68755;51.984;5.646;2023-04-28T01:14:44;11.9;47.2
79301;SHT31;68755;51.984;5.646;2023-04-28T01:17:14;11.9;47.5
79301;SHT31;68755;51.984;5.646;2023-04-28T01:19:45;11.9;47.5
79301;SHT31;68755;51.984;5.646;2023-04-28T01:22:14;11.9;47.4
79301;SHT31;68755;51.984;5.646;2023-04-28T01:24:44;11.9;47.7
79301;SHT31;68755;51.984;5.646;2023-04-28T01:27:16;11.8;48.1
79301;SHT31;68755;51.984;5.646;2023-04-28T01:29:45;11.8;48.7
79301;SHT31;68755;51.984;5.646;2023-04-28T01:32:15;11.8;48.1
79301;SHT31;68755;51.984;5.646;2023-04-28T01:34:44;11.8;48.4
79301;SHT31;68755;51.984;5.646;2023-04-28T01:37:14;11.8;47.6
79301;SHT31;68755;51.984;5.646;2023-04-28T01:39:44;11.8;47.7
79301;SHT31;68755;51.984;5.646;2023-04-28T01:42:13;11.7;48.0
79301;SHT31;68755;51.984;5.646;2023-04-28T01:44:43;11.7;48.5
79301;SHT31;68755;51.984;5.646;2023-04-28T01:47:12;11.7;48.2
79301;SHT31;68755;51.984;5.646;2023-04-28T01:49:42;11.7;48.9
79301;SHT31;68755;51.984;5.646;2023-04-28T01:52:14;11.6;48.7
79301;SHT31;68755;51.984;5.646;2023-04-28T01:54:46;11.6;49.0
79301;SHT31;68755;51.984;5.646;2023-04-28T01:57:15;11.6;47.9
79301;SHT31;68755;51.984;5.646;2023-04-28T01:59:45;11.6;48.0
79301;SHT31;68755;51.984;5.646;2023-04-28T02:02:15;11.6;48.7
79301;SHT31;68755;51.984;5.646;2023-04-28T02:04:45;11.5;48.9
79301;SHT31;68755;51.984;5.646;2023-04-28T02:07:14;11.5;48.4
79301;SHT31;68755;51.984;5.646;2023-04-28T02:09:44;11.5;48.2
79301;SHT31;68755;51.984;5.646;2023-04-28T02:12:14;11.5;47.7
79301;SHT31;68755;51.984;5.646;2023-04-28T02:14:43;11.5;48.1
79301;SHT31;68755;51.984;5.646;2023-04-28T02:17:13;11.5;48.1
79301;SHT31;68755;51.984;5.646;2023-04-28T02:19:42;11.4;48.2
79301;SHT31;68755;51.984;5.646;2023-04-28T02:22:12;11.4;48.3
79301;SHT31;68755;51.984;5.646;2023-04-28T02:24:42;11.4;48.5
79301;SHT31;68755;51.984;5.646;2023-04-28T02:27:12;11.4;48.7
79301;SHT31;68755;51.984;5.646;2023-04-28T02:29:43;11.4;49.1
79301;SHT31;68755;51.984;5.646;2023-04-28T02:32:13;11.4;48.6
79301;SHT31;68755;51.984;5.646;2023-04-28T02:34:43;11.4;48.4
79301;SHT31;68755;51.984;5.646;2023-04-28T02:37:13;11.4;48.5
79301;SHT31;68755;51.984;5.646;2023-04-28T02:39:42;11.4;48.9
79301;SHT31;68755;51.984;5.646;2023-04-28T02:42:13;11.4;48.6
79301;SHT31;68755;51.984;5.646;2023-04-28T02:44:42;11.4;48.3
79301;SHT31;68755;51.984;5.646;2023-04-28T02:47:12;11.4;47.9
79301;SHT31;68755;51.984;5.646;2023-04-28T02:49:42;11.4;48.3
79301;SHT31;68755;51.984;5.646;2023-04-28T02:52:11;11.4;48.0
79301;SHT31;68755;51.984;5.646;2023-04-28T02:54:41;11.4;48.3
79301;SHT31;68755;51.984;5.646;2023-04-28T02:57:15;11.4;48.5
79301;SHT31;68755;51.984;5.646;2023-04-28T02:59:44;11.4;48.4
79301;SHT31;68755;51.984;5.646;2023-04-28T03:02:14;11.4;48.5
79301;SHT31;68755;51.984;5.646;2023-04-28T03:04:44;11.3;48.6
79301;SHT31;68755;51.984;5.646;2023-04-28T03:07:13;11.3;48.7
79301;SHT31;68755;51.984;5.646;2023-04-28T03:09:43;11.3;48.8
79301;SHT31;68755;51.984;5.646;2023-04-28T03:12:13;11.3;48.8
79301;SHT31;68755;51.984;5.646;2023-04-28T03:14:43;11.3;48.6
79301;SHT31;68755;51.984;5.646;2023-04-28T03:17:12;11.3;49.2
79301;SHT31;68755;51.984;5.646;2023-04-28T03:19:42;11.3;48.7
79301;SHT31;68755;51.984;5.646;2023-04-28T03:22:12;11.3;48.8
79301;SHT31;68755;51.984;5.646;2023-04-28T03:24:41;11.3;49.0
79301;SHT31;68755;51.984;5.646;2023-04-28T03:27:13;11.3;48.8
79301;SHT31;68755;51.984;5.646;2023-04-28T03:29:42;11.2;49.2
79301;SHT31;68755;51.984;5.646;2023-04-28T03:32:12;11.2;49.2
79301;SHT31;68755;51.984;5.646;2023-04-28T03:34:42;11.2;49.5
79301;SHT31;68755;51.984;5.646;2023-04-28T03:37:11;11.2;49.8
79301;SHT31;68755;51.984;5.646;2023-04-28T03:39:43;11.2;49.4
79301;SHT31;68755;51.984;5.646;2023-04-28T03:42:12;11.2;49.6
79301;SHT31;68755;51.984;5.646;2023-04-28T03:44:42;11.2;49.7
79301;SHT31;68755;51.984;5.646;2023-04-28T03:47:12;11.2;49.7
79301;SHT31;68755;51.984;5.646;2023-04-28T03:49:42;11.2;50.0
79301;SHT31;68755;51.984;5.646;2023-04-28T03:52:12;11.2;49.9
79301;SHT31;68755;51.984;5.646;2023-04-28T03:54:42;11.2;50.2
79301;SHT31;68755;51.984;5.646;2023-04-28T03:57:12;11.2;50.4
79301;SHT31;68755;51.984;5.646;2023-04-28T03:59:42;11.2;50.5
79301;SHT31;68755;51.984;5.646;2023-04-28T04:02:12;11.2;50.6
79301;SHT31;68755;51.984;5.646;2023-04-28T04:04:41;11.2;51.0
79301;SHT31;68755;51.984;5.646;2023-04-28T04:07:12;11.2;51.0
79301;SHT31;68755;51.984;5.646;2023-04-28T04:09:41;11.2;51.3
79301;SHT31;68755;51.984;5.646;2023-04-28T04:12:11;11.2;51.9
79301;SHT31;68755;51.984;5.646;2023-04-28T04:14:41;11.3;51.8
79301;SHT31;68755;51.984;5.646;2023-04-28T04:17:10;11.3;51.9
79301;SHT31;68755;51.984;5.646;2023-04-28T04:19:39;11.3;52.0
79301;SHT31;68755;51.984;5.646;2023-04-28T04:22:09;11.3;51.9
79301;SHT31;68755;51.984;5.646;2023-04-28T04:24:41;11.3;52.2
79301;SHT31;68755;51.984;5.646;2023-04-28T04:27:10;11.3;52.4
79301;SHT31;68755;51.984;5.646;2023-04-28T04:29:40;11.3;52.6
79301;SHT31;68755;51.984;5.646;2023-04-28T04:32:09;11.3;52.8
79301;SHT31;68755;51.984;5.646;2023-04-28T04:34:39;11.3;53.0
79301;SHT31;68755;51.984;5.646;2023-04-28T04:37:08;11.3;53.2
79301;SHT31;68755;51.984;5.646;2023-04-28T04:39:38;11.3;53.5
79301;SHT31;68755;51.984;5.646;2023-04-28T04:42:08;11.2;53.9
79301;SHT31;68755;51.984;5.646;2023-04-28T04:44:37;11.2;54.2
79301;SHT31;68755;51.984;5.646;2023-04-28T04:47:07;11.3;54.5
79301;SHT31;68755;51.984;5.646;2023-04-28T04:49:37;11.2;54.7
79301;SHT31;68755;51.984;5.646;2023-04-28T04:52:07;11.3;55.0
79301;SHT31;68755;51.984;5.646;2023-04-28T04:54:36;11.3;55.2
79301;SHT31;68755;51.984;5.646;2023-04-28T04:57:06;11.3;55.6
79301;SHT31;68755;51.984;5.646;2023-04-28T04:59:36;11.3;55.7
79301;SHT31;68755;51.984;5.646;2023-04-28T05:02:06;11.3;55.9
79301;SHT31;68755;51.984;5.646;2023-04-28T05:04:37;11.3;56.1
79301;SHT31;68755;51.984;5.646;2023-04-28T05:07:07;11.3;56.3
79301;SHT31;68755;51.984;5.646;2023-04-28T05:09:37;11.3;56.3
79301;SHT31;68755;51.984;5.646;2023-04-28T05:12:07;11.3;56.5
79301;SHT31;68755;51.984;5.646;2023-04-28T05:14:36;11.3;56.5
79301;SHT31;68755;51.984;5.646;2023-04-28T05:17:06;11.3;56.7
79301;SHT31;68755;51.984;5.646;2023-04-28T05:19:36;11.3;56.9
79301;SHT31;68755;51.984;5.646;2023-04-28T05:22:05;11.3;56.8
79301;SHT31;68755;51.984;5.646;2023-04-28T05:24:35;11.3;57.1
79301;SHT31;68755;51.984;5.646;2023-04-28T05:27:04;11.3;57.2
79301;SHT31;68755;51.984;5.646;2023-04-28T05:29:34;11.3;57.4
79301;SHT31;68755;51.984;5.646;2023-04-28T05:32:04;11.3;57.5
79301;SHT31;68755;51.984;5.646;2023-04-28T05:34:34;11.3;57.7
79301;SHT31;68755;51.984;5.646;2023-04-28T05:37:03;11.3;57.9
79301;SHT31;68755;51.984;5.646;2023-04-28T05:39:35;11.3;57.8
79301;SHT31;68755;51.984;5.646;2023-04-28T05:42:05;11.4;58.3
79301;SHT31;68755;51.984;5.646;2023-04-28T05:44:34;11.4;58.5
79301;SHT31;68755;51.984;5.646;2023-04-28T05:47:04;11.4;58.5
79301;SHT31;68755;51.984;5.646;2023-04-28T05:49:33;11.4;58.7
79301;SHT31;68755;51.984;5.646;2023-04-28T05:52:03;11.4;58.7
79301;SHT31;68755;51.984;5.646;2023-04-28T05:54:33;11.4;59.2
79301;SHT31;68755;51.984;5.646;2023-04-28T05:57:03;11.4;60.9
79301;SHT31;68755;51.984;5.646;2023-04-28T05:59:33;11.4;62.0
79301;SHT31;68755;51.984;5.646;2023-04-28T06:02:03;11.4;63.2
79301;SHT31;68755;51.984;5.646;2023-04-28T06:04:33;11.4;64.0
79301;SHT31;68755;51.984;5.646;2023-04-28T06:07:03;11.4;65.3
79301;SHT31;68755;51.984;5.646;2023-04-28T06:09:33;11.4;65.8
79301;SHT31;68755;51.984;5.646;2023-04-28T06:12:03;11.4;65.8
79301;SHT31;68755;51.984;5.646;2023-04-28T06:14:32;11.4;66.6
79301;SHT31;68755;51.984;5.646;2023-04-28T06:17:04;11.3;67.0
79301;SHT31;68755;51.984;5.646;2023-04-28T06:19:34;11.3;67.7
79301;SHT31;68755;51.984;5.646;2023-04-28T06:22:04;11.3;67.7
79301;SHT31;68755;51.984;5.646;2023-04-28T06:24:33;11.3;68.4
79301;SHT31;68755;51.984;5.646;2023-04-28T06:27:05;11.3;68.9
79301;SHT31;68755;51.984;5.646;2023-04-28T06:29:34;11.3;69.2
79301;SHT31;68755;51.984;5.646;2023-04-28T06:32:04;11.3;69.6
79301;SHT31;68755;51.984;5.646;2023-04-28T06:34:35;11.3;69.9
79301;SHT31;68755;51.984;5.646;2023-04-28T06:37:07;11.3;69.8
79301;SHT31;68755;51.984;5.646;2023-04-28T06:39:37;11.3;70.4
79301;SHT31;68755;51.984;5.646;2023-04-28T06:42:07;11.3;71.2
79301;SHT31;68755;51.984;5.646;2023-04-28T06:44:37;11.3;71.3
79301;SHT31;68755;51.984;5.646;2023-04-28T06:47:06;11.4;72.4
79301;SHT31;68755;51.984;5.646;2023-04-28T06:49:37;11.4;72.3
79301;SHT31;68755;51.984;5.646;2023-04-28T06:52:10;11.4;72.6
79301;SHT31;68755;51.984;5.646;2023-04-28T06:54:40;11.5;73.2
79301;SHT31;68755;51.984;5.646;2023-04-28T06:57:12;11.5;73.2
79301;SHT31;68755;51.984;5.646;2023-04-28T06:59:41;11.6;73.6
79301;SHT31;68755;51.984;5.646;2023-04-28T07:02:12;11.6;73.5
79301;SHT31;68755;51.984;5.646;2023-04-28T07:04:42;11.7;73.4
79301;SHT31;68755;51.984;5.646;2023-04-28T07:07:12;11.8;73.0
79301;SHT31;68755;51.984;5.646;2023-04-28T07:09:43;11.8;72.9
79301;SHT31;68755;51.984;5.646;2023-04-28T07:12:13;11.8;72.9
79301;SHT31;68755;51.984;5.646;2023-04-28T07:14:42;11.9;73.0
79301;SHT31;68755;51.984;5.646;2023-04-28T07:17:13;11.9;73.3
79301;SHT31;68755;51.984;5.646;2023-04-28T07:19:44;11.9;73.4
79301;SHT31;68755;51.984;5.646;2023-04-28T07:22:16;12.0;73.9
79301;SHT31;68755;51.984;5.646;2023-04-28T07:24:46;12.0;74.7
79301;SHT31;68755;51.984;5.646;2023-04-28T07:27:15;12.0;74.5
79301;SHT31;68755;51.984;5.646;2023-04-28T07:29:45;12.1;73.8
79301;SHT31;68755;51.984;5.646;2023-04-28T07:32:14;12.1;74.0
79301;SHT31;68755;51.984;5.646;2023-04-28T07:34:46;12.2;74.1
79301;SHT31;68755;51.984;5.646;2023-04-28T07:37:16;12.2;73.9
79301;SHT31;68755;51.984;5.646;2023-04-28T07:39:46;12.2;74.1
79301;SHT31;68755;51.984;5.646;2023-04-28T07:42:15;12.3;74.5
79301;SHT31;68755;51.984;5.646;2023-04-28T07:44:45;12.3;74.3
79301;SHT31;68755;51.984;5.646;2023-04-28T07:47:15;12.3;74.5
79301;SHT31;68755;51.984;5.646;2023-04-28T07:49:44;12.4;75.5
79301;SHT31;68755;51.984;5.646;2023-04-28T07:52:14;12.4;74.4
79301;SHT31;68755;51.984;5.646;2023-04-28T07:54:44;12.5;74.6
79301;SHT31;68755;51.984;5.646;2023-04-28T07:57:13;12.5;74.8
79301;SHT31;68755;51.984;5.646;2023-04-28T07:59:43;12.6;75.5
79301;SHT31;68755;51.984;5.646;2023-04-28T08:02:13;12.6;74.7
79301;SHT31;68755;51.984;5.646;2023-04-28T08:04:43;12.6;74.6
79301;SHT31;68755;51.984;5.646;2023-04-28T08:07:12;12.7;74.9
79301;SHT31;68755;51.984;5.646;2023-04-28T08:09:43;12.7;75.4
79301;SHT31;68755;51.984;5.646;2023-04-28T08:12:14;12.7;76.4
79301;SHT31;68755;51.984;5.646;2023-04-28T08:14:44;12.8;76.3
79301;SHT31;68755;51.984;5.646;2023-04-28T08:17:16;12.9;76.0
79301;SHT31;68755;51.984;5.646;2023-04-28T08:19:46;12.9;76.1
79301;SHT31;68755;51.984;5.646;2023-04-28T08:22:16;13.0;76.1
79301;SHT31;68755;51.984;5.646;2023-04-28T08:24:46;13.0;75.9
79301;SHT31;68755;51.984;5.646;2023-04-28T08:27:15;13.1;75.5
79301;SHT31;68755;51.984;5.646;2023-04-28T08:29:45;13.1;75.1
79301;SHT31;68755;51.984;5.646;2023-04-28T08:32:14;13.2;75.7
79301;SHT31;68755;51.984;5.646;2023-04-28T08:34:44;13.2;75.1
79301;SHT31;68755;51.984;5.646;2023-04-28T08:37:14;13.3;76.1
79301;SHT31;68755;51.984;5.646;2023-04-28T08:39:43;13.3;75.8
79301;SHT31;68755;51.984;5.646;2023-04-28T08:42:15;13.3;75.8
79301;SHT31;68755;51.984;5.646;2023-04-28T08:44:46;13.4;75.3
79301;SHT31;68755;51.984;5.646;2023-04-28T08:47:19;13.4;75.7
79301;SHT31;68755;51.984;5.646;2023-04-28T08:49:53;13.5;75.7
79301;SHT31;68755;51.984;5.646;2023-04-28T08:52:26;13.5;75.9
79301;SHT31;68755;51.984;5.646;2023-04-28T08:54:58;13.6;75.9
79301;SHT31;68755;51.984;5.646;2023-04-28T08:57:36;13.6;77.0
79301;SHT31;68755;51.984;5.646;2023-04-28T09:00:07;13.7;77.2
79301;SHT31;68755;51.984;5.646;2023-04-28T09:02:37;13.8;77.7
79301;SHT31;68755;51.984;5.646;2023-04-28T09:05:09;13.8;76.4
79301;SHT31;68755;51.984;5.646;2023-04-28T09:07:40;13.9;75.9
79301;SHT31;68755;51.984;5.646;2023-04-28T09:10:16;13.9;75.7
79301;SHT31;68755;51.984;5.646;2023-04-28T09:12:47;13.9;75.3
79301;SHT31;68755;51.984;5.646;2023-04-28T09:15:31;13.9;75.9
79301;SHT31;68755;51.984;5.646;2023-04-28T09:18:02;14.0;76.0
79301;SHT31;68755;51.984;5.646;2023-04-28T09:20:34;14.0;74.9
79301;SHT31;68755;51.984;5.646;2023-04-28T09:23:15;14.0;75.2
79301;SHT31;68755;51.984;5.646;2023-04-28T09:25:58;14.0;75.3
79301;SHT31;68755;51.984;5.646;2023-04-28T09:28:29;14.0;75.6
79301;SHT31;68755;51.984;5.646;2023-04-28T09:30:59;14.0;75.7
79301;SHT31;68755;51.984;5.646;2023-04-28T09:33:29;14.0;76.0
79301;SHT31;68755;51.984;5.646;2023-04-28T09:35:59;14.0;75.8
79301;SHT31;68755;51.984;5.646;2023-04-28T09:38:29;14.0;76.2
79301;SHT31;68755;51.984;5.646;2023-04-28T09:41:01;14.0;76.4
79301;SHT31;68755;51.984;5.646;2023-04-28T09:43:32;14.0;76.5
79301;SHT31;68755;51.984;5.646;2023-04-28T09:46:04;14.0;76.9
79301;SHT31;68755;51.984;5.646;2023-04-28T09:48:36;14.0;76.8
79301;SHT31;68755;51.984;5.646;2023-04-28T09:51:07;14.0;77.4
79301;SHT31;68755;51.984;5.646;2023-04-28T09:53:38;14.1;77.6
79301;SHT31;68755;51.984;5.646;2023-04-28T09:56:08;14.1;77.4
79301;SHT31;68755;51.984;5.646;2023-04-28T09:58:39;14.1;78.3
79301;SHT31;68755;51.984;5.646;2023-04-28T10:01:12;14.1;77.7
79301;SHT31;68755;51.984;5.646;2023-04-28T10:03:43;14.1;78.3
79301;SHT31;68755;51.984;5.646;2023-04-28T10:06:14;14.1;78.4
79301;SHT31;68755;51.984;5.646;2023-04-28T10:08:44;14.1;78.8
79301;SHT31;68755;51.984;5.646;2023-04-28T10:11:15;14.1;79.1
79301;SHT31;68755;51.984;5.646;2023-04-28T10:13:44;14.2;79.3
79301;SHT31;68755;51.984;5.646;2023-04-28T10:16:18;14.2;80.1
79301;SHT31;68755;51.984;5.646;2023-04-28T10:18:50;14.2;80.1
79301;SHT31;68755;51.984;5.646;2023-04-28T10:21:22;14.2;80.0
79301;SHT31;68755;51.984;5.646;2023-04-28T10:24:04;14.2;80.4
79301;SHT31;68755;51.984;5.646;2023-04-28T10:27:05;14.3;80.1
79301;SHT31;68755;51.984;5.646;2023-04-28T10:29:35;14.3;80.5
79301;SHT31;68755;51.984;5.646;2023-04-28T10:32:20;14.3;80.6
79301;SHT31;68755;51.984;5.646;2023-04-28T10:34:51;14.3;81.1
79301;SHT31;68755;51.984;5.646;2023-04-28T10:37:54;14.3;80.7
79301;SHT31;68755;51.984;5.646;2023-04-28T10:40:33;14.4;81.3
79301;SHT31;68755;51.984;5.646;2023-04-28T10:43:04;14.4;81.6
79301;SHT31;68755;51.984;5.646;2023-04-28T10:46:05;14.4;81.8
79301;SHT31;68755;51.984;5.646;2023-04-28T10:52:49;14.5;81.7
79301;SHT31;68755;51.984;5.646;2023-04-28T10:55:29;14.5;81.7
79301;SHT31;68755;51.984;5.646;2023-04-28T10:58:32;14.5;81.6
79301;SHT31;68755;51.984;5.646;2023-04-28T11:01:25;14.6;82.0
79301;SHT31;68755;51.984;5.646;2023-04-28T11:03:57;14.6;82.0
79301;SHT31;68755;51.984;5.646;2023-04-28T11:06:31;14.6;81.8
79301;SHT31;68755;51.984;5.646;2023-04-28T11:11:39;14.7;81.4
79301;SHT31;68755;51.984;5.646;2023-04-28T11:14:33;14.7;81.9
79301;SHT31;68755;51.984;5.646;2023-04-28T11:17:05;14.7;81.4
79301;SHT31;68755;51.984;5.646;2023-04-28T11:19:37;14.7;81.4
79301;SHT31;68755;51.984;5.646;2023-04-28T11:22:17;14.7;81.2
79301;SHT31;68755;51.984;5.646;2023-04-28T11:24:57;14.8;81.1
79301;SHT31;68755;51.984;5.646;2023-04-28T11:27:28;14.8;80.8
79301;SHT31;68755;51.984;5.646;2023-04-28T11:29:59;14.8;81.0
79301;SHT31;68755;51.984;5.646;2023-04-28T11:32:33;14.8;80.7
79301;SHT31;68755;51.984;5.646;2023-04-28T11:35:03;14.8;80.8
79301;SHT31;68755;51.984;5.646;2023-04-28T11:37:36;14.8;80.9
79301;SHT31;68755;51.984;5.646;2023-04-28T11:40:11;14.8;80.9
79301;SHT31;68755;51.984;5.646;2023-04-28T11:42:48;14.8;81.0
79301;SHT31;68755;51.984;5.646;2023-04-28T11:45:17;14.8;80.7
79301;SHT31;68755;51.984;5.646;2023-04-28T11:47:47;14.9;81.2
79301;SHT31;68755;51.984;5.646;2023-04-28T11:50:36;14.9;81.3
79301;SHT31;68755;51.984;5.646;2023-04-28T11:53:05;14.9;81.6
79301;SHT31;68755;51.984;5.646;2023-04-28T11:55:35;14.9;81.1
79301;SHT31;68755;51.984;5.646;2023-04-28T11:58:21;15.0;81.3
79301;SHT31;68755;51.984;5.646;2023-04-28T12:01:07;15.0;80.6
79301;SHT31;68755;51.984;5.646;2023-04-28T12:03:44;15.0;80.5
79301;SHT31;68755;51.984;5.646;2023-04-28T12:06:17;15.0;80.6
79301;SHT31;68755;51.984;5.646;2023-04-28T12:08:48;15.0;80.1
79301;SHT31;68755;51.984;5.646;2023-04-28T12:11:18;15.0;79.8
79301;SHT31;68755;51.984;5.646;2023-04-28T12:14:04;15.0;80.3
79301;SHT31;68755;51.984;5.646;2023-04-28T12:16:40;15.0;79.9
79301;SHT31;68755;51.984;5.646;2023-04-28T12:19:13;15.1;79.7
79301;SHT31;68755;51.984;5.646;2023-04-28T12:21:43;15.1;79.6
79301;SHT31;68755;51.984;5.646;2023-04-28T12:24:19;15.1;79.6
79301;SHT31;68755;51.984;5.646;2023-04-28T12:26:51;15.1;79.4
79301;SHT31;68755;51.984;5.646;2023-04-28T12:29:37;15.1;79.9
79301;SHT31;68755;51.984;5.646;2023-04-28T12:32:09;15.1;80.3
79301;SHT31;68755;51.984;5.646;2023-04-28T12:34:41;15.1;79.8
79301;SHT31;68755;51.984;5.646;2023-04-28T12:37:11;15.1;79.5
79301;SHT31;68755;51.984;5.646;2023-04-28T12:39:41;15.1;79.4
79301;SHT31;68755;51.984;5.646;2023-04-28T12:42:11;15.1;79.4
79301;SHT31;68755;51.984;5.646;2023-04-28T12:44:41;15.1;79.8
79301;SHT31;68755;51.984;5.646;2023-04-28T12:47:12;15.1;80.0
79301;SHT31;68755;51.984;5.646;2023-04-28T12:49:43;15.1;79.6
79301;SHT31;68755;51.984;5.646;2023-04-28T12:52:15;15.2;79.7
79301;SHT31;68755;51.984;5.646;2023-04-28T12:54:45;15.2;79.9
79301;SHT31;68755;51.984;5.646;2023-04-28T12:57:16;15.2;79.5
79301;SHT31;68755;51.984;5.646;2023-04-28T12:59:47;15.3;79.7
79301;SHT31;68755;51.984;5.646;2023-04-28T13:02:18;15.3;79.6
79301;SHT31;68755;51.984;5.646;2023-04-28T13:04:48;15.4;78.9
79301;SHT31;68755;51.984;5.646;2023-04-28T13:07:19;15.4;78.7
79301;SHT31;68755;51.984;5.646;2023-04-28T13:09:51;15.5;78.1
79301;SHT31;68755;51.984;5.646;2023-04-28T13:12:22;15.5;78.9
79301;SHT31;68755;51.984;5.646;2023-04-28T13:14:51;15.5;78.8
79301;SHT31;68755;51.984;5.646;2023-04-28T13:17:21;15.6;78.7
79301;SHT31;68755;51.984;5.646;2023-04-28T13:19:51;15.6;78.7
79301;SHT31;68755;51.984;5.646;2023-04-28T13:22:20;15.7;78.6
79301;SHT31;68755;51.984;5.646;2023-04-28T13:24:52;15.7;78.4
79301;SHT31;68755;51.984;5.646;2023-04-28T13:27:22;15.7;77.4
79301;SHT31;68755;51.984;5.646;2023-04-28T13:29:53;15.8;77.8
79301;SHT31;68755;51.984;5.646;2023-04-28T13:32:25;15.8;78.4
79301;SHT31;68755;51.984;5.646;2023-04-28T13:34:56;15.8;78.2
79301;SHT31;68755;51.984;5.646;2023-04-28T13:37:25;15.8;78.6
79301;SHT31;68755;51.984;5.646;2023-04-28T13:39:55;15.8;78.3
79301;SHT31;68755;51.984;5.646;2023-04-28T13:42:25;15.8;78.1
79301;SHT31;68755;51.984;5.646;2023-04-28T13:44:55;15.9;78.5
79301;SHT31;68755;51.984;5.646;2023-04-28T13:47:25;15.9;77.7
79301;SHT31;68755;51.984;5.646;2023-04-28T13:49:59;15.9;77.7
79301;SHT31;68755;51.984;5.646;2023-04-28T13:52:28;15.9;77.9
79301;SHT31;68755;51.984;5.646;2023-04-28T13:54:58;16.0;77.5
79301;SHT31;68755;51.984;5.646;2023-04-28T13:57:29;16.0;77.7
79301;SHT31;68755;51.984;5.646;2023-04-28T13:59:59;16.0;77.5
79301;SHT31;68755;51.984;5.646;2023-04-28T14:02:30;16.0;77.1
79301;SHT31;68755;51.984;5.646;2023-04-28T14:05:00;16.0;77.0
79301;SHT31;68755;51.984;5.646;2023-04-28T14:07:30;16.1;77.3
79301;SHT31;68755;51.984;5.646;2023-04-28T14:09:59;16.1;77.5
79301;SHT31;68755;51.984;5.646;2023-04-28T14:12:29;16.1;77.8
79301;SHT31;68755;51.984;5.646;2023-04-28T14:14:59;16.1;78.0
79301;SHT31;68755;51.984;5.646;2023-04-28T14:17:30;16.1;77.7
79301;SHT31;68755;51.984;5.646;2023-04-28T14:20:02;16.1;77.6
79301;SHT31;68755;51.984;5.646;2023-04-28T14:22:34;16.1;77.0
79301;SHT31;68755;51.984;5.646;2023-04-28T14:25:04;16.2;76.9
79301;SHT31;68755;51.984;5.646;2023-04-28T14:27:35;16.2;77.0
79301;SHT31;68755;51.984;5.646;2023-04-28T14:30:05;16.1;76.7
79301;SHT31;68755;51.984;5.646;2023-04-28T14:32:35;16.1;76.8
79301;SHT31;68755;51.984;5.646;2023-04-28T14:35:06;16.1;77.4
79301;SHT31;68755;51.984;5.646;2023-04-28T14:37:37;16.1;77.8
79301;SHT31;68755;51.984;5.646;2023-04-28T14:40:08;16.1;77.6
79301;SHT31;68755;51.984;5.646;2023-04-28T14:42:38;16.1;77.5
79301;SHT31;68755;51.984;5.646;2023-04-28T14:45:09;16.0;78.3
79301;SHT31;68755;51.984;5.646;2023-04-28T14:47:42;16.0;78.1
79301;SHT31;68755;51.984;5.646;2023-04-28T14:50:11;16.0;78.6
79301;SHT31;68755;51.984;5.646;2023-04-28T14:52:41;16.0;79.2
79301;SHT31;68755;51.984;5.646;2023-04-28T14:55:10;16.0;79.0
79301;SHT31;68755;51.984;5.646;2023-04-28T14:57:40;16.0;78.9
79301;SHT31;68755;51.984;5.646;2023-04-28T15:00:11;16.0;78.8
79301;SHT31;68755;51.984;5.646;2023-04-28T15:02:42;16.0;78.6
79301;SHT31;68755;51.984;5.646;2023-04-28T15:05:13;16.0;78.5
79301;SHT31;68755;51.984;5.646;2023-04-28T15:07:44;16.0;77.7
79301;SHT31;68755;51.984;5.646;2023-04-28T15:10:14;16.0;77.2
79301;SHT31;68755;51.984;5.646;2023-04-28T15:12:44;16.0;76.8
79301;SHT31;68755;51.984;5.646;2023-04-28T15:15:15;16.0;76.9
79301;SHT31;68755;51.984;5.646;2023-04-28T15:17:45;16.0;76.8
79301;SHT31;68755;51.984;5.646;2023-04-28T15:20:15;16.0;76.7
79301;SHT31;68755;51.984;5.646;2023-04-28T15:22:45;16.0;76.6
79301;SHT31;68755;51.984;5.646;2023-04-28T15:25:16;16.0;77.1
79301;SHT31;68755;51.984;5.646;2023-04-28T15:27:46;16.0;77.1
79301;SHT31;68755;51.984;5.646;2023-04-28T15:30:17;16.0;77.0
79301;SHT31;68755;51.984;5.646;2023-04-28T15:32:48;16.0;77.6
79301;SHT31;68755;51.984;5.646;2023-04-28T15:35:18;15.9;77.7
79301;SHT31;68755;51.984;5.646;2023-04-28T15:37:50;15.9;77.2
79301;SHT31;68755;51.984;5.646;2023-04-28T15:40:21;15.9;77.6
79301;SHT31;68755;51.984;5.646;2023-04-28T15:42:51;15.9;77.6
79301;SHT31;68755;51.984;5.646;2023-04-28T15:45:21;15.9;78.0
79301;SHT31;68755;51.984;5.646;2023-04-28T15:47:51;15.9;78.3
79301;SHT31;68755;51.984;5.646;2023-04-28T15:50:21;15.9;78.3
79301;SHT31;68755;51.984;5.646;2023-04-28T15:52:51;15.9;78.4
79301;SHT31;68755;51.984;5.646;2023-04-28T15:55:21;15.9;78.3
79301;SHT31;68755;51.984;5.646;2023-04-28T15:57:51;15.9;77.7
79301;SHT31;68755;51.984;5.646;2023-04-28T16:00:21;15.9;78.1
79301;SHT31;68755;51.984;5.646;2023-04-28T16:02:51;15.9;77.9
79301;SHT31;68755;51.984;5.646;2023-04-28T16:05:21;15.9;77.5
79301;SHT31;68755;51.984;5.646;2023-04-28T16:07:50;15.8;77.4
79301;SHT31;68755;51.984;5.646;2023-04-28T16:10:23;15.8;77.6
79301;SHT31;68755;51.984;5.646;2023-04-28T16:12:53;15.8;77.5
79301;SHT31;68755;51.984;5.646;2023-04-28T16:15:23;15.8;77.3
79301;SHT31;68755;51.984;5.646;2023-04-28T16:17:53;15.8;77.6
79301;SHT31;68755;51.984;5.646;2023-04-28T16:20:23;15.8;77.7
79301;SHT31;68755;51.984;5.646;2023-04-28T16:22:52;15.8;77.9
79301;SHT31;68755;51.984;5.646;2023-04-28T16:25:22;15.8;77.7
79301;SHT31;68755;51.984;5.646;2023-04-28T16:27:52;15.8;77.8
79301;SHT31;68755;51.984;5.646;2023-04-28T16:30:22;15.8;77.8
79301;SHT31;68755;51.984;5.646;2023-04-28T16:32:53;15.8;77.5
79301;SHT31;68755;51.984;5.646;2023-04-28T16:35:24;15.8;77.2